Вираж

СКИДКИ НА СМАРТФОНЫ!

Карта отелей и гостиниц, располагающихся рядом с аэропортом Вираж :

Вираж
Белгород
Белгородская область 50° 38' 50.028" N, 36° 35' 35.124" E
Вираж
Белгород
Белгородская область 50° 38' 50.028" N, 36° 35' 35.124" E
Код аэродрома ИКАО
HEL3
Код аэродрома RU
ХЕЛ3
Координаты
N50.64723° E036.59309°
Превышение над уровнем моря
218
Основная полоса
Курс магнитный
Длина основной ВПП
Ширина основной ВПП
Покрытие основной ВПП
Твёрдое
Освещение ВПП
Нет
Тип: 
Вертодром
Класс аэродрома: 
Принадлежность: 
АОН
Статус: 
Действующий
Сайт: 
http://suncopter.ru/about_company/nashi_filialy/
E-mail аэродрома: 
club_belgorod@suncopter.ru
Страна: 
Россия
Регион: 
Белгородская область
Город: 
Белгород
Дополнительная информация: 
Оператор: Белгородский филиал НП "Вертолетный клуб «Солнечный» (г. Воронеж).

Скидки на навигаторы!

Найти трансфер

С помощью этой формы Вы можете найти трансфер из аэропорта Вираж в город, аэропорт или вокзал:

Погода в аэропортах:

Авиационная погода в Пскове

Регион: 
Погода METAR: 
ULOO 072100Z 13005MPS 090V160 0550 0450NE R19/1100D +SN BKN003 OVC017 M05/M07 Q1003 R19/990334 NOSIG RMK QBB110 OBST OBSC QFE748
Время наблюдения
2022-12-07T21:00:00Z
Температура C
-5.0
Точка росы
-7.0
Направление ветра
130
Скорость ветра (узлы)
10
Метео видимость
0.34
Облачность
BKN
OVC
Нижняя граница облачности (футы)
300
1700
Явления погоды
+SN
Условия полета
LIFR
BKN – значительная (рассеянная, разорванная) облачность; OVC – сплошная облачность;
+SN – сильный снег;

Авиационная погода в Тулча

Регион: 
Погода METAR: 
LRTC 072100Z AUTO 07001KT 5000 BR BKN009/// 05/02 Q1016
Время наблюдения
2022-12-07T21:00:00Z
Температура C
5.0
Точка росы
2.0
Направление ветра
70
Скорость ветра (узлы)
1
Метео видимость
3.11
Облачность
BKN
Нижняя граница облачности (футы)
900
Явления погоды
BR
Условия полета
IFR
BKN – значительная (рассеянная, разорванная) облачность;
BR – дымка (видимость от 1 до 9 км);

Авиационная погода в Жезказгане

Регион: 
Погода METAR: 
UAKD 070500Z 06004MPS 9999 -SN SCT005 BKN019 M21/M24 Q1033 NOSIG RMK QBB170 QFE740/0987
Время наблюдения
2022-12-07T05:00:00Z
Температура C
-21.0
Точка росы
-24.0
Направление ветра
60
Скорость ветра (узлы)
8
Метео видимость
6.21
Облачность
SCT
BKN
Нижняя граница облачности (футы)
500
1900
Явления погоды
-SN
Условия полета
MVFR
Аэропорт подробнее: 
SCT – разбросанная отдельная облачность; BKN – значительная (рассеянная, разорванная) облачность;
-SN – слабый снег;

Авиационная погода в Магнитогорске

Погода METAR: 
USCM 072100Z 00000MPS 4500 BR NSC M24/M27 Q1035 R18/090060 TEMPO 0300 FZFG VV002 RMK QFE738
Время наблюдения
2022-12-07T21:00:00Z
Температура C
-24.0
Точка росы
-27.0
Направление ветра
0
Скорость ветра (узлы)
0
Метео видимость
2.8
Облачность
CLR
Нижняя граница облачности (футы)
Явления погоды
BR
Условия полета
IFR
Аэропорт подробнее: 
CLR — нет облаков ниже 3000 м
BR – дымка (видимость от 1 до 9 км);